createdAt,value
2022-10-14T00:02:23.127Z,17.10
2022-10-14T00:04:49.961Z,17.10
2022-10-14T00:07:16.593Z,17.10
2022-10-14T00:09:43.320Z,17.00
2022-10-14T00:12:13.644Z,17.00
2022-10-14T00:14:40.366Z,17.00
2022-10-14T00:17:07.002Z,17.00
2022-10-14T00:19:33.656Z,16.90
2022-10-14T00:22:00.234Z,16.90
2022-10-14T00:24:26.890Z,16.90
2022-10-14T00:26:53.504Z,16.90
2022-10-14T00:29:20.282Z,16.80
2022-10-14T00:31:47.465Z,16.80
2022-10-14T00:34:16.039Z,16.80
2022-10-14T00:36:43.336Z,16.70
2022-10-14T00:39:15.012Z,16.70
2022-10-14T00:41:41.925Z,16.70
2022-10-14T00:44:14.320Z,16.60
2022-10-14T00:46:43.318Z,16.60
2022-10-14T00:49:18.632Z,16.70
2022-10-14T00:51:50.125Z,16.50
2022-10-14T00:54:24.130Z,16.50
2022-10-14T00:56:52.580Z,16.50
2022-10-14T00:59:19.511Z,16.50
2022-10-14T01:01:46.268Z,16.50
2022-10-14T01:04:12.990Z,16.40
2022-10-14T01:06:48.532Z,16.40
2022-10-14T01:09:18.187Z,16.40
2022-10-14T01:12:28.148Z,16.40
2022-10-14T01:15:10.921Z,16.50
2022-10-14T01:18:02.335Z,16.30
2022-10-14T01:21:10.051Z,16.30
2022-10-14T01:24:05.444Z,16.30
2022-10-14T01:26:53.302Z,16.30
2022-10-14T01:29:41.050Z,16.30
2022-10-14T01:32:15.943Z,16.30
2022-10-14T01:34:52.298Z,16.30
2022-10-14T01:37:25.067Z,16.50
2022-10-14T01:40:06.886Z,16.30
2022-10-14T01:42:38.329Z,16.30
2022-10-14T01:45:18.787Z,16.30
2022-10-14T01:47:49.243Z,16.30
2022-10-14T01:50:19.007Z,16.30
2022-10-14T01:52:55.744Z,16.40
2022-10-14T01:55:27.207Z,16.40
2022-10-14T01:57:56.939Z,16.40
2022-10-14T02:00:24.697Z,16.40
2022-10-14T02:02:51.340Z,16.40
2022-10-14T02:05:38.743Z,16.40
2022-10-14T02:08:13.078Z,16.40
2022-10-14T02:11:05.422Z,16.40
2022-10-14T02:13:57.583Z,16.40
2022-10-14T02:16:29.097Z,16.40
2022-10-14T02:19:05.509Z,16.40
2022-10-14T02:22:01.668Z,16.40
2022-10-14T02:24:41.621Z,16.40
2022-10-14T02:27:15.434Z,16.40
2022-10-14T02:29:45.561Z,16.40
2022-10-14T02:32:16.287Z,16.40
2022-10-14T02:34:47.274Z,16.30
2022-10-14T02:37:15.752Z,16.30
2022-10-14T02:39:48.714Z,16.40
2022-10-14T02:42:15.516Z,16.30
2022-10-14T02:44:53.907Z,16.30
2022-10-14T02:47:21.661Z,16.30
2022-10-14T02:49:49.519Z,16.30
2022-10-14T02:52:16.367Z,16.20
2022-10-14T02:54:43.242Z,16.20
2022-10-14T02:57:10.250Z,16.20
2022-10-14T02:59:36.855Z,16.20
2022-10-14T03:02:04.533Z,16.10
2022-10-14T03:04:31.304Z,16.10
2022-10-14T03:06:58.018Z,16.10
2022-10-14T03:09:25.524Z,16.10
2022-10-14T03:11:52.216Z,16.10
2022-10-14T03:14:20.561Z,16.10
2022-10-14T03:16:48.100Z,16.10
2022-10-14T03:19:20.901Z,16.00
2022-10-14T03:21:50.026Z,16.10
2022-10-14T03:24:19.717Z,16.10
2022-10-14T03:26:50.957Z,16.00
2022-10-14T03:29:23.787Z,16.00
2022-10-14T03:31:56.503Z,16.00
2022-10-14T03:34:43.374Z,16.00
2022-10-14T03:37:15.276Z,15.90
2022-10-14T03:39:48.939Z,16.00
2022-10-14T03:42:16.853Z,16.00
2022-10-14T03:44:47.082Z,16.00
2022-10-14T03:47:21.677Z,16.00
2022-10-14T03:49:48.544Z,16.00
2022-10-14T03:52:22.503Z,15.90
2022-10-14T03:55:00.096Z,15.90
2022-10-14T03:57:27.842Z,15.90
2022-10-14T03:59:56.894Z,15.80
2022-10-14T04:02:29.490Z,15.80
2022-10-14T04:05:00.849Z,15.70
2022-10-14T04:07:28.005Z,15.70
2022-10-14T04:09:57.292Z,15.60
2022-10-14T04:12:24.457Z,15.60
2022-10-14T04:15:08.264Z,15.60
2022-10-14T04:17:48.279Z,15.60
2022-10-14T04:20:17.215Z,15.50
2022-10-14T04:22:44.080Z,15.50
2022-10-14T04:25:13.564Z,15.50
2022-10-14T04:27:40.415Z,15.50
2022-10-14T04:30:10.317Z,15.50
2022-10-14T04:32:46.761Z,15.40
2022-10-14T04:35:13.479Z,15.40
2022-10-14T04:37:44.245Z,15.40
2022-10-14T04:40:20.420Z,15.40
2022-10-14T04:42:47.479Z,15.40
2022-10-14T04:45:25.257Z,15.40
2022-10-14T04:47:58.978Z,15.40
2022-10-14T04:50:26.438Z,15.50
2022-10-14T04:53:13.700Z,15.50
2022-10-14T04:55:52.785Z,15.50
2022-10-14T04:58:19.995Z,15.50
2022-10-14T05:00:48.028Z,15.50
2022-10-14T05:03:32.128Z,15.50
2022-10-14T05:05:59.581Z,15.50
2022-10-14T05:08:26.828Z,15.50
2022-10-14T05:10:56.175Z,15.50
2022-10-14T05:13:41.278Z,15.60
2022-10-14T05:16:09.021Z,15.60
2022-10-14T05:18:35.862Z,15.60
2022-10-14T05:21:07.512Z,15.60
2022-10-14T05:23:49.321Z,15.60
2022-10-14T05:26:16.277Z,15.60
2022-10-14T05:28:43.192Z,15.60
2022-10-14T05:31:10.720Z,15.60
2022-10-14T05:33:45.329Z,15.60
2022-10-14T05:36:12.405Z,15.60
2022-10-14T05:38:39.307Z,15.60
2022-10-14T05:41:06.021Z,15.70
2022-10-14T05:43:33.246Z,15.60
2022-10-14T05:46:02.379Z,15.60
2022-10-14T05:48:33.810Z,15.70
2022-10-14T05:51:02.389Z,15.70
2022-10-14T05:53:32.414Z,15.70
2022-10-14T05:56:07.804Z,15.70
2022-10-14T05:58:37.050Z,15.70
2022-10-14T06:01:12.432Z,15.70
2022-10-14T06:03:41.777Z,15.70
2022-10-14T06:06:15.314Z,15.70
2022-10-14T06:08:42.817Z,15.70
2022-10-14T06:11:09.578Z,15.70
2022-10-14T06:13:36.248Z,15.70
2022-10-14T06:16:08.032Z,15.70
2022-10-14T06:18:36.125Z,15.70
2022-10-14T06:21:03.444Z,15.70
2022-10-14T06:23:30.275Z,15.70
2022-10-14T06:25:57.084Z,15.70
2022-10-14T06:28:23.827Z,15.70
2022-10-14T06:30:54.576Z,15.70
2022-10-14T06:33:22.625Z,15.70
2022-10-14T06:35:49.298Z,15.70
2022-10-14T06:38:15.942Z,15.70
2022-10-14T06:40:42.575Z,15.70
2022-10-14T06:43:09.224Z,15.70
2022-10-14T06:45:35.891Z,15.80
2022-10-14T06:48:04.391Z,15.80
2022-10-14T06:50:31.020Z,15.80
2022-10-14T06:52:57.641Z,15.80
2022-10-14T06:55:24.293Z,15.90
2022-10-14T06:57:50.979Z,15.90
2022-10-14T07:00:18.043Z,15.90
2022-10-14T07:02:45.027Z,16.00
2022-10-14T07:05:12.008Z,16.00
2022-10-14T07:07:38.926Z,16.00
2022-10-14T07:10:06.003Z,16.10
2022-10-14T07:12:32.648Z,16.10
2022-10-14T07:14:59.309Z,16.10
2022-10-14T07:17:25.898Z,16.20
2022-10-14T07:19:52.519Z,16.20
2022-10-14T07:22:19.327Z,16.20
2022-10-14T07:24:46.111Z,16.30
2022-10-14T07:27:15.834Z,16.30
2022-10-14T07:29:43.072Z,16.30
2022-10-14T07:32:09.650Z,16.30
2022-10-14T07:34:36.427Z,16.40
2022-10-14T07:37:03.768Z,16.40
2022-10-14T07:39:30.485Z,16.40
2022-10-14T07:41:57.084Z,16.40
2022-10-14T07:44:27.256Z,16.50
2022-10-14T07:46:54.454Z,16.40
2022-10-14T07:49:23.662Z,16.50
2022-10-14T07:51:50.517Z,16.50
2022-10-14T07:54:20.583Z,16.50
2022-10-14T07:56:50.775Z,16.60
2022-10-14T07:59:19.834Z,16.60
2022-10-14T08:01:47.460Z,16.60
2022-10-14T08:04:14.204Z,16.70
2022-10-14T08:06:40.900Z,16.70
2022-10-14T08:09:10.922Z,16.70
2022-10-14T08:11:37.744Z,16.80
2022-10-14T08:14:04.655Z,16.80
2022-10-14T08:16:34.606Z,16.80
2022-10-14T08:19:05.560Z,16.90
2022-10-14T08:21:34.528Z,16.90
2022-10-14T08:24:01.239Z,16.90
2022-10-14T08:26:31.818Z,17.00
2022-10-14T08:29:06.658Z,17.00
2022-10-14T08:31:33.555Z,17.00
2022-10-14T08:34:00.261Z,17.00
2022-10-14T08:36:27.182Z,17.10
2022-10-14T08:38:54.656Z,17.10
2022-10-14T08:41:24.260Z,17.10
2022-10-14T08:44:12.542Z,17.20
2022-10-14T08:46:52.183Z,17.20
2022-10-14T08:49:22.400Z,17.30
2022-10-14T08:52:15.017Z,17.40
2022-10-14T08:54:49.429Z,17.40
2022-10-14T08:57:22.514Z,17.40
2022-10-14T08:59:49.254Z,17.50
2022-10-14T09:02:28.111Z,17.60
2022-10-14T09:04:55.107Z,17.60
2022-10-14T09:07:21.917Z,17.70
2022-10-14T09:10:11.453Z,17.80
2022-10-14T09:12:40.134Z,17.80
2022-10-14T09:15:15.974Z,17.90
2022-10-14T09:18:19.716Z,17.90
2022-10-14T09:20:47.277Z,18.00
2022-10-14T09:23:19.913Z,18.00
2022-10-14T09:26:05.223Z,18.00
2022-10-14T09:28:38.471Z,18.10
2022-10-14T09:31:08.105Z,18.10
2022-10-14T09:33:42.081Z,18.10
2022-10-14T09:36:20.798Z,18.20
2022-10-14T09:38:52.867Z,18.30
2022-10-14T09:41:30.188Z,18.30
2022-10-14T09:44:22.141Z,18.30
2022-10-14T09:47:13.092Z,18.40
2022-10-14T09:49:46.870Z,18.50
2022-10-14T09:52:24.940Z,18.50
2022-10-14T09:54:55.129Z,18.70
2022-10-14T09:57:22.136Z,18.80
2022-10-14T10:00:00.545Z,18.90
2022-10-14T10:02:40.951Z,19.10
2022-10-14T10:05:35.308Z,19.20
2022-10-14T10:08:04.590Z,19.30
2022-10-14T10:10:32.064Z,19.40
2022-10-14T10:12:58.963Z,19.50
2022-10-14T10:15:26.017Z,19.60
2022-10-14T10:17:53.382Z,19.70
2022-10-14T10:20:20.122Z,19.70
2022-10-14T10:22:46.885Z,19.80
2022-10-14T10:25:13.822Z,19.90
2022-10-14T10:27:42.960Z,20.00
2022-10-14T10:30:21.315Z,20.10
2022-10-14T10:33:29.179Z,20.10
2022-10-14T10:36:08.313Z,20.20
2022-10-14T10:38:45.301Z,20.20
2022-10-14T10:41:25.042Z,20.20
2022-10-14T10:43:57.650Z,20.30
2022-10-14T10:46:52.096Z,20.30
2022-10-14T10:49:44.657Z,20.30
2022-10-14T10:52:47.027Z,20.20
2022-10-14T10:55:18.295Z,20.20
2022-10-14T10:57:50.627Z,20.20
2022-10-14T11:00:21.134Z,20.10
2022-10-14T11:02:55.918Z,20.10
2022-10-14T11:05:25.419Z,20.00
2022-10-14T11:08:49.454Z,20.00
2022-10-14T11:11:41.743Z,20.00
2022-10-14T11:14:26.906Z,20.00
2022-10-14T11:17:12.002Z,20.00
2022-10-14T11:20:05.347Z,20.00
2022-10-14T11:22:59.971Z,20.00
2022-10-14T11:25:36.204Z,20.00
2022-10-14T11:28:41.840Z,20.00
2022-10-14T11:31:27.514Z,20.10
2022-10-14T11:34:15.825Z,20.00
2022-10-14T11:37:04.007Z,20.10
2022-10-14T11:39:45.518Z,20.10
2022-10-14T11:42:34.037Z,20.10
2022-10-14T11:45:49.672Z,20.10
2022-10-14T11:48:34.394Z,20.10
2022-10-14T11:51:36.861Z,20.10
2022-10-14T11:54:03.924Z,20.10
2022-10-14T11:56:39.355Z,20.10
2022-10-14T11:59:36.833Z,20.10
2022-10-14T12:02:18.499Z,20.10
2022-10-14T12:04:52.553Z,20.10
2022-10-14T12:07:24.997Z,20.20
2022-10-14T12:10:01.892Z,20.10
2022-10-14T12:12:30.707Z,20.20
2022-10-14T12:15:06.244Z,20.20
2022-10-14T12:17:42.902Z,20.20
2022-10-14T12:20:34.407Z,20.30
2022-10-14T12:23:03.356Z,20.30
2022-10-14T12:25:38.139Z,20.30
2022-10-14T12:28:05.458Z,20.30
2022-10-14T12:30:36.740Z,20.30
2022-10-14T12:33:17.706Z,20.30
2022-10-14T12:36:00.835Z,20.30
2022-10-14T12:38:29.718Z,20.30
2022-10-14T12:41:36.042Z,20.40
2022-10-14T12:44:05.057Z,20.40
2022-10-14T12:46:31.729Z,20.40
2022-10-14T12:49:00.303Z,20.40
2022-10-14T12:51:27.322Z,20.40
2022-10-14T12:53:57.919Z,20.40
2022-10-14T12:56:42.118Z,20.40
2022-10-14T12:59:22.497Z,20.40
2022-10-14T13:01:55.894Z,20.40
2022-10-14T13:04:22.793Z,20.40
2022-10-14T13:07:43.282Z,20.30
2022-10-14T13:10:56.309Z,20.30
2022-10-14T13:13:52.356Z,20.30
2022-10-14T13:16:25.240Z,20.30
2022-10-14T13:18:57.729Z,20.30
2022-10-14T13:21:36.208Z,20.30
2022-10-14T13:24:07.397Z,20.30
2022-10-14T13:26:44.047Z,20.20
2022-10-14T13:29:19.896Z,20.20
2022-10-14T13:32:05.052Z,20.20
2022-10-14T13:34:43.987Z,20.20
2022-10-14T13:37:36.554Z,20.20
2022-10-14T13:40:39.189Z,20.20
2022-10-14T13:43:19.514Z,20.20
2022-10-14T13:46:02.514Z,20.20
2022-10-14T13:48:43.751Z,20.10
2022-10-14T13:51:24.713Z,20.10
2022-10-14T13:54:32.684Z,20.10
2022-10-14T14:02:39.860Z,20.10
2022-10-14T14:05:14.180Z,20.00
2022-10-14T14:10:30.373Z,20.00
2022-10-14T14:12:58.317Z,20.00
2022-10-14T14:15:28.941Z,20.00
2022-10-14T14:17:55.693Z,19.90
2022-10-14T14:20:26.227Z,20.00
2022-10-14T14:22:53.528Z,20.00
2022-10-14T14:25:33.996Z,20.00
2022-10-14T14:28:02.891Z,20.00
2022-10-14T14:30:38.779Z,19.90
2022-10-14T14:33:10.820Z,19.90
2022-10-14T14:35:37.607Z,19.90
2022-10-14T14:38:04.471Z,19.90
2022-10-14T14:40:31.770Z,19.90
2022-10-14T14:43:00.677Z,19.80
2022-10-14T14:45:43.182Z,19.80
2022-10-14T14:48:12.150Z,19.80
2022-10-14T14:50:43.267Z,19.80
2022-10-14T14:53:13.827Z,19.80
2022-10-14T14:55:46.093Z,19.80
2022-10-14T14:58:47.160Z,19.70
2022-10-14T15:01:23.882Z,19.70
2022-10-14T15:04:14.698Z,19.70
2022-10-14T15:06:51.368Z,19.60
2022-10-14T15:09:24.927Z,19.60
2022-10-14T15:11:57.621Z,19.60
2022-10-14T15:15:16.941Z,19.60
2022-10-14T15:17:47.512Z,19.50
2022-10-14T15:20:29.838Z,19.50
2022-10-14T15:22:56.533Z,19.50
2022-10-14T15:25:30.693Z,19.50
2022-10-14T15:28:01.852Z,19.40
2022-10-14T15:30:40.680Z,19.40
2022-10-14T15:33:24.773Z,19.40
2022-10-14T15:36:01.592Z,19.40
2022-10-14T15:40:56.270Z,19.30
2022-10-14T15:43:24.902Z,19.30
2022-10-14T15:46:15.576Z,19.30
2022-10-14T15:48:54.724Z,19.30
2022-10-14T15:51:26.112Z,19.20
2022-10-14T15:53:52.815Z,19.20
2022-10-14T15:56:20.876Z,19.20
2022-10-14T15:58:47.883Z,19.20
2022-10-14T16:01:22.825Z,19.10
2022-10-14T16:03:52.171Z,19.20
2022-10-14T16:06:22.289Z,19.20
2022-10-14T16:08:49.025Z,19.10
2022-10-14T16:11:29.843Z,19.10
2022-10-14T16:13:56.695Z,19.10
2022-10-14T16:16:37.027Z,19.10
2022-10-14T16:19:04.730Z,19.10
2022-10-14T16:21:31.852Z,19.00
2022-10-14T16:23:59.032Z,19.00
2022-10-14T16:26:26.176Z,19.00
2022-10-14T16:28:53.069Z,19.00
2022-10-14T16:31:21.222Z,19.00
2022-10-14T16:33:56.053Z,19.00
2022-10-14T16:36:25.950Z,19.00
2022-10-14T16:38:53.062Z,19.00
2022-10-14T16:41:19.793Z,19.00
2022-10-14T16:43:47.486Z,19.00
2022-10-14T16:46:16.044Z,19.00
2022-10-14T16:48:42.987Z,19.00
2022-10-14T16:51:09.837Z,19.00
2022-10-14T16:53:43.775Z,19.00
2022-10-14T16:56:37.829Z,19.00
2022-10-14T16:59:05.355Z,19.00
2022-10-14T17:01:32.165Z,18.90
2022-10-14T17:03:58.893Z,19.00
2022-10-14T17:06:26.471Z,19.00
2022-10-14T17:08:53.683Z,19.00
2022-10-14T17:11:20.629Z,18.90
2022-10-14T17:13:50.337Z,18.90
2022-10-14T17:16:16.983Z,18.90
2022-10-14T17:18:43.623Z,18.90
2022-10-14T17:21:13.589Z,18.90
2022-10-14T17:23:42.208Z,18.90
2022-10-14T17:26:11.929Z,18.90
2022-10-14T17:28:40.453Z,18.90
2022-10-14T17:31:10.041Z,18.90
2022-10-14T17:33:37.541Z,18.90
2022-10-14T17:36:06.329Z,18.90
2022-10-14T17:38:34.843Z,18.90
2022-10-14T17:41:03.323Z,18.90
2022-10-14T17:43:31.117Z,18.90
2022-10-14T17:48:42.679Z,18.90
2022-10-14T17:51:13.426Z,18.90
2022-10-14T17:53:40.349Z,18.90
2022-10-14T17:56:09.575Z,18.90
2022-10-14T17:58:36.227Z,18.90
2022-10-14T18:01:11.403Z,18.90
2022-10-14T18:03:41.948Z,18.90
2022-10-14T18:06:18.894Z,18.90
2022-10-14T18:08:49.422Z,18.90
2022-10-14T18:11:17.083Z,18.90
2022-10-14T18:13:43.744Z,18.90
2022-10-14T18:16:13.231Z,18.90
2022-10-14T18:18:41.523Z,18.90
2022-10-14T18:21:10.082Z,18.90
2022-10-14T18:23:39.103Z,18.90
2022-10-14T18:26:13.411Z,18.80
2022-10-14T18:28:47.640Z,18.80
2022-10-14T18:31:17.349Z,18.80
2022-10-14T18:33:44.867Z,18.80
2022-10-14T18:36:13.518Z,18.80
2022-10-14T18:38:40.868Z,18.80
2022-10-14T18:41:11.708Z,18.80
2022-10-14T18:43:38.664Z,18.80
2022-10-14T18:46:09.515Z,18.80
2022-10-14T18:48:37.141Z,18.80
2022-10-14T18:51:05.286Z,18.80
2022-10-14T18:53:33.098Z,18.80
2022-10-14T18:56:08.335Z,18.80
2022-10-14T18:58:39.371Z,18.80
2022-10-14T19:01:06.409Z,18.80
2022-10-14T19:03:34.982Z,18.70
2022-10-14T19:06:02.101Z,18.70
2022-10-14T19:08:28.723Z,18.70
2022-10-14T19:11:20.108Z,18.70
2022-10-14T19:13:48.785Z,18.70
2022-10-14T19:16:22.360Z,18.70
2022-10-14T19:18:54.286Z,18.70
2022-10-14T19:21:22.525Z,18.60
2022-10-14T19:23:50.234Z,18.60
2022-10-14T19:26:21.881Z,18.60
2022-10-14T19:28:49.763Z,18.60
2022-10-14T19:31:20.088Z,18.60
2022-10-14T19:33:47.405Z,18.60
2022-10-14T19:36:16.325Z,18.60
2022-10-14T19:38:50.953Z,18.60
2022-10-14T19:41:18.419Z,18.50
2022-10-14T19:43:45.100Z,18.50
2022-10-14T19:46:13.586Z,18.50
2022-10-14T19:48:40.694Z,18.50
2022-10-14T19:51:11.623Z,18.50
2022-10-14T19:53:38.786Z,18.50
2022-10-14T19:56:10.708Z,18.40
2022-10-14T19:58:40.979Z,18.40
2022-10-14T20:01:20.943Z,18.40
2022-10-14T20:03:47.670Z,18.40
2022-10-14T20:06:14.665Z,18.40
2022-10-14T20:08:42.799Z,18.40
2022-10-14T20:11:14.211Z,18.40
2022-10-14T20:13:40.896Z,18.40
2022-10-14T20:16:09.720Z,18.30
2022-10-14T20:18:37.134Z,18.30
2022-10-14T20:21:05.986Z,18.30
2022-10-14T20:23:34.357Z,18.30
2022-10-14T20:26:07.172Z,18.30
2022-10-14T20:28:38.142Z,18.30
2022-10-14T20:31:13.496Z,18.20
2022-10-14T20:33:40.458Z,18.20
2022-10-14T20:36:13.343Z,18.20
2022-10-14T20:38:41.268Z,18.20
2022-10-14T20:41:13.755Z,18.10
2022-10-14T20:43:41.431Z,18.20
2022-10-14T20:46:08.093Z,18.10
2022-10-14T20:48:34.772Z,18.10
2022-10-14T20:51:08.350Z,18.10
2022-10-14T20:53:35.103Z,18.00
2022-10-14T20:56:10.908Z,18.00
2022-10-14T20:58:37.835Z,18.00
2022-10-14T21:01:17.673Z,18.00
2022-10-14T21:03:45.763Z,18.00
2022-10-14T21:06:15.631Z,18.00
2022-10-14T21:08:42.663Z,18.00
2022-10-14T21:11:14.972Z,17.90
2022-10-14T21:13:45.153Z,17.90
2022-10-14T21:16:16.177Z,17.90
2022-10-14T21:18:55.204Z,17.90
2022-10-14T21:21:26.211Z,17.90
2022-10-14T21:23:52.896Z,17.90
2022-10-14T21:26:19.706Z,17.90
2022-10-14T21:28:46.594Z,17.90
2022-10-14T21:31:17.406Z,17.90
2022-10-14T21:33:46.931Z,17.80
2022-10-14T21:36:16.019Z,17.80
2022-10-14T21:38:42.792Z,17.80
2022-10-14T21:41:09.513Z,17.80
2022-10-14T21:43:37.501Z,17.80
2022-10-14T21:46:12.299Z,17.80
2022-10-14T21:48:39.180Z,17.80
2022-10-14T21:51:08.639Z,17.80
2022-10-14T21:53:35.269Z,17.70
2022-10-14T21:56:02.039Z,17.70
2022-10-14T21:58:29.824Z,17.70
2022-10-14T22:01:09.293Z,17.70
2022-10-14T22:03:37.312Z,17.70
2022-10-14T22:06:06.910Z,17.70
2022-10-14T22:08:36.927Z,17.70
2022-10-14T22:11:04.701Z,17.60
2022-10-14T22:13:32.431Z,17.60
2022-10-14T22:15:59.351Z,17.60
2022-10-14T22:18:27.619Z,17.60
2022-10-14T22:21:04.888Z,17.60
2022-10-14T22:23:33.124Z,17.60
2022-10-14T22:26:04.649Z,17.50
2022-10-14T22:28:31.916Z,17.50
2022-10-14T22:31:19.426Z,17.50
2022-10-14T22:33:46.378Z,17.50
2022-10-14T22:36:19.367Z,17.40
2022-10-14T22:38:49.782Z,17.40
2022-10-14T22:41:18.037Z,17.40
2022-10-14T22:43:52.819Z,17.40
2022-10-14T22:46:21.196Z,17.40
2022-10-14T22:48:56.050Z,17.30
2022-10-14T22:51:34.771Z,17.30
2022-10-14T22:54:02.206Z,17.30
2022-10-14T22:56:30.468Z,17.20
2022-10-14T22:58:59.717Z,17.20
2022-10-14T23:01:29.721Z,17.20
2022-10-14T23:03:57.416Z,17.20
2022-10-14T23:06:24.177Z,17.20
2022-10-14T23:08:50.922Z,17.20
2022-10-14T23:11:19.585Z,17.20
2022-10-14T23:13:46.864Z,17.10
2022-10-14T23:16:19.695Z,17.20
2022-10-14T23:18:46.834Z,17.20
2022-10-14T23:21:19.253Z,17.20
2022-10-14T23:23:47.051Z,17.20
2022-10-14T23:26:16.403Z,17.10
2022-10-14T23:28:47.180Z,17.10
2022-10-14T23:31:16.333Z,17.20
2022-10-14T23:33:43.601Z,17.10
2022-10-14T23:36:12.358Z,17.10
2022-10-14T23:38:40.009Z,17.20
2022-10-14T23:41:08.181Z,17.10
2022-10-14T23:43:35.071Z,17.10
2022-10-14T23:46:02.266Z,17.10
2022-10-14T23:48:29.281Z,17.10
2022-10-14T23:50:56.315Z,17.10
2022-10-14T23:53:23.540Z,17.10
2022-10-14T23:55:50.174Z,17.10
2022-10-14T23:58:16.846Z,17.10
